Search for airport 
image banner adimage banner adimage banner ad
image banner ad

1IA4 - Wallace Field

Located in Creston, United States

ICAO - 1IA4, IATA -

Data provided by Airmate  

General information

Coordinates: N41°3'20" W94°23'41"
Elevation is 1290 feet MSL.
Magnetic variation is 05° East
View others Airports in Iowa

Operational data

Special qualification required
Current time UTC:
Current local time:
Weather at : KCSQ - Creston Muni ( 5 km )
METAR: KCSQ 150955Z AUTO 00000KT 10SM CLR 18/14 A3011 RMK AO2
View NOTAMs / SUP AIP / TFR affecting this airport [VIEW]
Communications frequencies: [VIEW]

Runways:

RWY identifierQFULength (ft)Width (ft)SurfaceLDA (ft)
18120060GRASS
36120060GRASS

Airport contact information

Address: Creston United States

Satellite view of 1IA4